GB-0587 weather

Public forecast

Using degrees Celsius for public forecast. Weather courtesy of forecast.io.

Closest aviation weather report (METAR) to Norton Malreward Airstrip

Closest report is Bristol Airport, 5.6 nm (10.4 km) W. Retrieved 2020/08/09 13:20 UTC (23 minutes ago):

EGGD 091320Z AUTO 35010KT 9999 SCT014 20/16 Q1019

Closest aviation forecast (TAF) to Norton Malreward Airstrip

Closest forecast is Bristol Airport, 5.6 nm (10.4 km) W. Retrieved 2020/08/09 12:00 UTC (2 hours ago):

TAF EGGD 091053Z 0912/1012 05010KT 9999 FEW030 PROB30 1000/1009 8000 BKN008 PROB30 TEMPO 1009/1012 8000 SHRA